Airfield :
LOGIN :

Register | Disclaimer

   EN    FR    IT 

 










Legend :    VFR   Marginal VFR   IFR   Intensive IFR   Very Intensive IFR
Visi :
Ceiling :
>= 8 km
>= 3000ft
5 to 8 km
1000 to 3000 ft
1500m to 5 km
500 to 1000 ft
800 to 1500m
200 to 500 ft
< 800m
< 200 ft
Symbols :   Thunderstorms  Fog  Heavy snow  Heavy precipitations  Wind > 20 kt
SIGMETs :     Misc.  Thunderstorms  Icing  Turbulence  Mountain Waves  Volcanic Ashes






- Airport Elevation : 433 ft
- IATA code : CCF


LFMK - Carcassonne

CURRENT METAR :
  • 270530Z AUTO 14003KT 9999 FEW001 00/M00 Q1019 TEMPO 0500 FG VV///

EXPIRED METARs :
  • 270500Z AUTO 00000KT 0800 R10/1200N FZFG VV/// M00/M01 Q1020 TEMPO 0500 FG
  • 270430Z AUTO 00000KT 0750 0650 R10/1000U FZFG VV/// M00/M01 Q1020 TEMPO 0500 FG
  • 270400Z AUTO VRB01KT 1200 0900 R10/1600D BCFG VV/// 01/00 Q1020 TEMPO 0500 FG
  • 270330Z AUTO 17002KT 0450 0400 R10/0700U FG VV/// 01/01 Q1020 NOSIG
  • 270300Z AUTO 30002KT 0800 0700 R10/1000U FG VV/// 00/00 Q1021 TEMPO 0500 FG

TAF TAF LFMK
Valid from the 27 at 03:00 until the 28 at 03:00 UTC


270200Z 2703/2803 VRB03KT 5000 BR NSC
TEMPO 2703/2710 0500 FG VV///
BECMG 2710/2711 09010KT 9999 BKN014
BECMG 2716/2718 VRB03KT
BECMG 2718/2720 FEW010 SCT080



MET'MAP, your aeronautical weather chart ! - Copyright ORBIFLY December 2007 - Disclaimer

ORBIFLY MET'MAP TEAM :

Programming & Development : Alexandra Zaïnal
Concept & original design : Baudouin d'Aumeries
Assistance for programming : Marc-Olivier Méhu
Technical & hardware support : Manuel Goepfert

Contact : metmap@orbifly.com




SOURCES & CREDITS :

   NOAA